createdAt,value
2018-03-27T00:00:15.409Z,101622.29
2018-03-27T00:01:21.912Z,101612.84
2018-03-27T00:02:28.166Z,101613.28
2018-03-27T00:03:34.098Z,101621.69
2018-03-27T00:04:40.589Z,101611.62
2018-03-27T00:05:46.965Z,101621.16
2018-03-27T00:06:53.397Z,101612.22
2018-03-27T00:07:58.986Z,101616.24
2018-03-27T00:09:05.196Z,101621.34
2018-03-27T00:10:11.339Z,101619.55
2018-03-27T00:11:16.291Z,101619.66
2018-03-27T00:12:22.132Z,101618.36
2018-03-27T00:13:27.934Z,101609.52
2018-03-27T00:14:33.698Z,101613.09
2018-03-27T00:15:39.804Z,101609.96
2018-03-27T00:16:46.761Z,101610.65
2018-03-27T00:17:52.919Z,101610.78
2018-03-27T00:18:58.780Z,101616.47
2018-03-27T00:20:04.754Z,101612.36
2018-03-27T00:21:14.885Z,101612.48
2018-03-27T00:22:21.178Z,101609.78
2018-03-27T00:23:26.958Z,101610.78
2018-03-27T00:24:42.950Z,101609.79
2018-03-27T00:25:55.371Z,101605.53
2018-03-27T00:27:01.893Z,101610.14
2018-03-27T00:28:17.826Z,101609.95
2018-03-27T00:29:34.018Z,101611.31
2018-03-27T00:30:50.269Z,101601.39
2018-03-27T00:32:06.223Z,101600.80
2018-03-27T00:33:22.186Z,101601.53
2018-03-27T00:34:37.974Z,101606.08
2018-03-27T00:35:54.230Z,101602.41
2018-03-27T00:37:10.539Z,101599.66
2018-03-27T00:38:26.483Z,101599.06
2018-03-27T00:39:42.472Z,101598.05
2018-03-27T00:40:47.613Z,101598.85
2018-03-27T00:42:16.098Z,101605.40
2018-03-27T00:43:22.014Z,101603.55
2018-03-27T00:44:27.851Z,101613.58
2018-03-27T00:45:33.541Z,101615.83
2018-03-27T00:46:39.374Z,101608.56
2018-03-27T00:47:47.271Z,101613.77
2018-03-27T00:48:53.647Z,101615.38
2018-03-27T00:50:00.228Z,101614.41
2018-03-27T00:51:06.079Z,101613.48
2018-03-27T00:52:12.646Z,101608.20
2018-03-27T00:53:18.778Z,101607.31
2018-03-27T00:54:26.232Z,101608.91
2018-03-27T00:55:31.868Z,101608.73
2018-03-27T00:56:38.438Z,101603.06
2018-03-27T00:57:46.078Z,101607.70
2018-03-27T00:58:52.794Z,101601.19
2018-03-27T00:59:59.564Z,101598.69
2018-03-27T01:01:05.981Z,101583.77
2018-03-27T01:02:12.516Z,101597.42
2018-03-27T01:03:18.341Z,101592.02
2018-03-27T01:04:24.965Z,101588.70
2018-03-27T01:05:30.173Z,101591.70
2018-03-27T01:06:36.984Z,101586.98
2018-03-27T01:07:43.395Z,101587.66
2018-03-27T01:08:50.279Z,101588.39
2018-03-27T01:09:57.651Z,101588.93
2018-03-27T01:11:03.512Z,101578.03
2018-03-27T01:12:09.712Z,101579.09
2018-03-27T01:13:14.892Z,101573.33
2018-03-27T01:14:21.778Z,101577.05
2018-03-27T01:15:29.875Z,101580.80
2018-03-27T01:16:38.193Z,101585.36
2018-03-27T01:17:50.882Z,101581.53
2018-03-27T01:18:56.730Z,101577.84
2018-03-27T01:20:03.432Z,101578.41
2018-03-27T01:21:09.592Z,101574.25
2018-03-27T01:22:15.055Z,101580.42
2018-03-27T01:23:21.737Z,101579.37
2018-03-27T01:24:27.852Z,101571.89
2018-03-27T01:25:34.480Z,101572.06
2018-03-27T01:26:41.235Z,101573.95
2018-03-27T01:27:47.778Z,101570.36
2018-03-27T01:28:55.141Z,101568.55
2018-03-27T01:30:03.273Z,101568.32
2018-03-27T01:31:09.614Z,101568.25
2018-03-27T01:32:16.292Z,101567.66
2018-03-27T01:33:22.958Z,101565.48
2018-03-27T01:34:29.691Z,101572.06
2018-03-27T01:35:36.402Z,101566.41
2018-03-27T01:36:41.563Z,101567.55
2018-03-27T01:37:48.040Z,101566.19
2018-03-27T01:38:54.683Z,101558.77
2018-03-27T01:40:01.431Z,101560.08
2018-03-27T01:41:06.617Z,101559.76
2018-03-27T01:42:13.648Z,101563.31
2018-03-27T01:43:19.776Z,101562.27
2018-03-27T01:44:27.265Z,101559.56
2018-03-27T01:45:34.089Z,101557.58
2018-03-27T01:46:40.214Z,101562.37
2018-03-27T01:47:46.281Z,101560.19
2018-03-27T01:48:53.764Z,101566.19
2018-03-27T01:50:00.171Z,101562.95
2018-03-27T01:51:06.749Z,101553.45
2018-03-27T01:52:12.583Z,101555.61
2018-03-27T01:53:19.291Z,101564.19
2018-03-27T01:54:26.371Z,101556.92
2018-03-27T01:55:32.537Z,101557.53
2018-03-27T01:56:38.485Z,101554.90
2018-03-27T01:57:44.282Z,101554.09
2018-03-27T01:58:53.186Z,101547.67
2018-03-27T01:59:59.231Z,101550.52
2018-03-27T02:01:05.749Z,101546.80
2018-03-27T02:02:12.349Z,101544.26
2018-03-27T02:03:18.293Z,101536.93
2018-03-27T02:04:25.286Z,101536.48
2018-03-27T02:05:31.127Z,101545.62
2018-03-27T02:06:37.507Z,101540.56
2018-03-27T02:07:43.927Z,101539.64
2018-03-27T02:08:49.735Z,101541.84
2018-03-27T02:10:03.126Z,101543.20
2018-03-27T02:11:15.744Z,101539.78
2018-03-27T02:12:27.048Z,101544.69
2018-03-27T02:13:37.479Z,101537.67
2018-03-27T02:14:49.566Z,101541.18
2018-03-27T02:16:00.152Z,101545.58
2018-03-27T02:17:10.627Z,101542.68
2018-03-27T02:18:21.502Z,101540.83
2018-03-27T02:19:33.725Z,101535.80
2018-03-27T02:20:45.033Z,101541.09
2018-03-27T02:21:50.981Z,101535.16
2018-03-27T02:22:59.918Z,101535.19
2018-03-27T02:24:06.627Z,101533.51
2018-03-27T02:25:12.688Z,101532.45
2018-03-27T02:26:18.284Z,101531.45
2018-03-27T02:27:31.248Z,101536.04
2018-03-27T02:28:37.163Z,101536.47
2018-03-27T02:29:45.105Z,101535.48
2018-03-27T02:31:01.881Z,101532.44
2018-03-27T02:32:08.254Z,101532.44
2018-03-27T02:33:14.382Z,101533.84
2018-03-27T02:34:20.862Z,101539.28
2018-03-27T02:35:28.300Z,101536.23
2018-03-27T02:36:35.033Z,101530.09
2018-03-27T02:37:41.338Z,101528.78
2018-03-27T02:38:47.829Z,101527.97
2018-03-27T02:39:53.014Z,101529.11
2018-03-27T02:41:00.465Z,101532.13
2018-03-27T02:42:06.003Z,101527.70
2018-03-27T02:43:12.515Z,101529.36
2018-03-27T02:44:18.456Z,101523.55
2018-03-27T02:45:25.857Z,101529.48
2018-03-27T02:46:31.509Z,101525.99
2018-03-27T02:47:38.230Z,101529.00
2018-03-27T02:48:44.389Z,101524.08
2018-03-27T02:49:52.814Z,101527.58
2018-03-27T02:50:58.942Z,101519.06
2018-03-27T02:52:04.716Z,101519.82
2018-03-27T02:53:10.976Z,101516.93
2018-03-27T02:54:17.465Z,101519.27
2018-03-27T02:55:23.933Z,101524.59
2018-03-27T02:56:29.953Z,101521.11
2018-03-27T02:57:35.921Z,101522.43
2018-03-27T02:58:41.054Z,101524.64
2018-03-27T02:59:46.755Z,101523.34
2018-03-27T03:00:54.265Z,101519.73
2018-03-27T03:02:05.647Z,101530.22
2018-03-27T03:03:11.793Z,101534.03
2018-03-27T03:04:17.304Z,101527.83
2018-03-27T03:05:22.780Z,101526.48
2018-03-27T03:06:29.229Z,101519.73
2018-03-27T03:07:37.401Z,101525.06
2018-03-27T03:08:44.107Z,101527.95
2018-03-27T03:09:49.622Z,101523.38
2018-03-27T03:10:55.855Z,101524.06
2018-03-27T03:12:02.758Z,101523.98
2018-03-27T03:13:08.772Z,101524.41
2018-03-27T03:14:14.534Z,101523.47
2018-03-27T03:15:21.253Z,101522.64
2018-03-27T03:16:27.882Z,101517.33
2018-03-27T03:17:33.604Z,101517.39
2018-03-27T03:18:39.029Z,101515.53
2018-03-27T03:19:45.468Z,101514.54
2018-03-27T03:20:50.520Z,101516.34
2018-03-27T03:21:58.235Z,101519.03
2018-03-27T03:23:03.648Z,101524.88
2018-03-27T03:24:08.744Z,101518.19
2018-03-27T03:25:15.371Z,101519.35
2018-03-27T03:26:22.446Z,101513.97
2018-03-27T03:27:28.644Z,101519.95
2018-03-27T03:28:34.414Z,101509.09
2018-03-27T03:29:40.900Z,101514.74
2018-03-27T03:30:49.208Z,101513.96
2018-03-27T03:31:56.207Z,101514.56
2018-03-27T03:33:02.832Z,101516.88
2018-03-27T03:34:08.544Z,101506.93
2018-03-27T03:35:14.932Z,101512.58
2018-03-27T03:36:21.448Z,101501.32
2018-03-27T03:37:27.398Z,101506.56
2018-03-27T03:38:33.054Z,101508.91
2018-03-27T03:39:38.770Z,101507.47
2018-03-27T03:40:44.390Z,101505.55
2018-03-27T03:41:51.471Z,101503.02
2018-03-27T03:42:56.776Z,101502.67
2018-03-27T03:44:02.062Z,101499.38
2018-03-27T03:45:07.636Z,101504.64
2018-03-27T03:46:14.118Z,101500.52
2018-03-27T03:47:19.375Z,101499.11
2018-03-27T03:48:25.488Z,101502.62
2018-03-27T03:49:31.275Z,101504.77
2018-03-27T03:50:36.613Z,101495.89
2018-03-27T03:51:42.692Z,101501.59
2018-03-27T03:52:49.600Z,101502.45
2018-03-27T03:53:55.140Z,101498.00
2018-03-27T03:55:00.684Z,101503.78
2018-03-27T03:56:06.408Z,101501.61
2018-03-27T03:57:12.637Z,101505.13
2018-03-27T03:58:18.652Z,101506.02
2018-03-27T03:59:24.218Z,101506.47
2018-03-27T04:00:30.306Z,101503.69
2018-03-27T04:01:36.506Z,101499.88
2018-03-27T04:02:42.678Z,101502.46
2018-03-27T04:03:48.315Z,101501.52
2018-03-27T04:04:54.613Z,101500.95
2018-03-27T04:06:00.035Z,101502.25
2018-03-27T04:07:05.614Z,101501.80
2018-03-27T04:08:10.876Z,101496.26
2018-03-27T04:09:17.734Z,101492.59
2018-03-27T04:10:23.895Z,101490.97
2018-03-27T04:11:30.016Z,101496.58
2018-03-27T04:12:35.350Z,101494.20
2018-03-27T04:13:41.204Z,101499.94
2018-03-27T04:14:47.049Z,101495.47
2018-03-27T04:15:53.481Z,101487.40
2018-03-27T04:16:59.359Z,101490.23
2018-03-27T04:18:04.727Z,101498.08
2018-03-27T04:19:11.618Z,101492.52
2018-03-27T04:20:16.696Z,101489.66
2018-03-27T04:21:22.658Z,101487.26
2018-03-27T04:22:28.527Z,101483.63
2018-03-27T04:23:38.338Z,101491.55
2018-03-27T04:24:43.772Z,101489.46
2018-03-27T04:25:48.922Z,101489.48
2018-03-27T04:26:54.813Z,101487.38
2018-03-27T04:28:00.453Z,101490.76
2018-03-27T04:29:06.649Z,101493.34
2018-03-27T04:30:16.104Z,101493.30
2018-03-27T04:31:22.261Z,101487.52
2018-03-27T04:32:27.882Z,101485.95
2018-03-27T04:33:35.782Z,101490.05
2018-03-27T04:34:41.898Z,101488.83
2018-03-27T04:35:47.891Z,101483.06
2018-03-27T04:36:53.369Z,101478.30
2018-03-27T04:37:59.026Z,101482.26
2018-03-27T04:39:04.935Z,101482.33
2018-03-27T04:40:11.378Z,101480.28
2018-03-27T04:41:17.598Z,101483.88
2018-03-27T04:42:23.213Z,101481.25
2018-03-27T04:43:29.237Z,101481.70
2018-03-27T04:44:36.667Z,101482.56
2018-03-27T04:45:42.226Z,101486.61
2018-03-27T04:46:48.415Z,101484.34
2018-03-27T04:47:54.043Z,101486.88
2018-03-27T04:48:59.812Z,101480.49
2018-03-27T04:50:05.403Z,101489.08
2018-03-27T04:51:12.726Z,101487.06
2018-03-27T04:52:19.741Z,101484.63
2018-03-27T04:53:26.099Z,101484.17
2018-03-27T04:54:31.311Z,101480.86
2018-03-27T04:55:37.880Z,101485.66
2018-03-27T04:56:43.946Z,101485.43
2018-03-27T04:57:50.222Z,101475.03
2018-03-27T04:58:56.887Z,101488.75
2018-03-27T05:00:05.909Z,101482.23
2018-03-27T05:01:10.880Z,101486.62
2018-03-27T05:02:17.878Z,101483.48
2018-03-27T05:03:24.214Z,101479.52
2018-03-27T05:04:30.384Z,101482.07
2018-03-27T05:05:36.510Z,101486.34
2018-03-27T05:06:41.818Z,101479.61
2018-03-27T05:07:51.384Z,101483.91
2018-03-27T05:08:57.022Z,101484.64
2018-03-27T05:10:03.222Z,101488.20
2018-03-27T05:11:09.233Z,101483.91
2018-03-27T05:12:15.331Z,101482.59
2018-03-27T05:13:20.723Z,101479.53
2018-03-27T05:14:26.860Z,101480.33
2018-03-27T05:15:33.187Z,101475.50
2018-03-27T05:16:41.209Z,101478.56
2018-03-27T05:17:46.485Z,101472.42
2018-03-27T05:18:52.414Z,101478.04
2018-03-27T05:19:58.362Z,101477.94
2018-03-27T05:21:03.801Z,101473.02
2018-03-27T05:22:10.040Z,101476.95
2018-03-27T05:23:16.210Z,101471.17
2018-03-27T05:24:21.961Z,101469.75
2018-03-27T05:25:27.148Z,101468.26
2018-03-27T05:26:33.331Z,101469.16
2018-03-27T05:27:40.126Z,101470.92
2018-03-27T05:28:45.830Z,101469.13
2018-03-27T05:29:51.126Z,101467.91
2018-03-27T05:30:57.521Z,101465.81
2018-03-27T05:32:02.842Z,101463.73
2018-03-27T05:33:09.186Z,101468.55
2018-03-27T05:34:15.699Z,101463.77
2018-03-27T05:35:22.240Z,101469.77
2018-03-27T05:36:28.700Z,101469.34
2018-03-27T05:37:33.928Z,101471.60
2018-03-27T05:38:40.159Z,101464.51
2018-03-27T05:39:45.831Z,101463.63
2018-03-27T05:40:51.611Z,101467.22
2018-03-27T05:41:57.970Z,101465.92
2018-03-27T05:43:03.889Z,101460.21
2018-03-27T05:44:11.285Z,101465.00
2018-03-27T05:45:20.599Z,101467.40
2018-03-27T05:46:26.805Z,101468.38
2018-03-27T05:47:32.606Z,101462.86
2018-03-27T05:48:38.900Z,101460.20
2018-03-27T05:49:45.998Z,101463.97
2018-03-27T05:50:51.502Z,101463.01
2018-03-27T05:51:58.172Z,101463.80
2018-03-27T05:53:04.129Z,101460.73
2018-03-27T05:54:09.921Z,101463.33
2018-03-27T05:55:15.522Z,101459.80
2018-03-27T05:56:21.077Z,101457.12
2018-03-27T05:57:26.453Z,101464.11
2018-03-27T05:58:32.510Z,101463.45
2018-03-27T05:59:38.122Z,101459.11
2018-03-27T06:00:43.553Z,101467.93
2018-03-27T06:01:49.002Z,101466.75
2018-03-27T06:02:55.426Z,101466.28
2018-03-27T06:04:01.256Z,101467.31
2018-03-27T06:05:08.207Z,101473.87
2018-03-27T06:06:15.105Z,101466.09
2018-03-27T06:07:21.166Z,101463.16
2018-03-27T06:08:27.637Z,101456.26
2018-03-27T06:09:35.042Z,101461.44
2018-03-27T06:10:41.393Z,101462.02
2018-03-27T06:11:47.150Z,101466.92
2018-03-27T06:14:05.562Z,101460.36
2018-03-27T06:15:15.359Z,101463.33
2018-03-27T06:16:21.663Z,101464.87
2018-03-27T06:17:28.034Z,101463.98
2018-03-27T06:18:34.396Z,101471.17
2018-03-27T06:19:41.100Z,101467.66
2018-03-27T06:20:46.835Z,101458.96
2018-03-27T06:21:53.846Z,101463.60
2018-03-27T06:23:00.216Z,101465.19
2018-03-27T06:24:07.091Z,101463.17
2018-03-27T06:25:14.380Z,101468.17
2018-03-27T06:26:21.130Z,101464.16
2018-03-27T06:27:27.317Z,101468.17
2018-03-27T06:28:32.992Z,101465.28
2018-03-27T06:29:38.786Z,101459.65
2018-03-27T06:30:44.834Z,101461.59
2018-03-27T06:31:58.951Z,101461.16
2018-03-27T06:33:05.079Z,101464.34
2018-03-27T06:34:11.326Z,101463.52
2018-03-27T06:35:18.673Z,101459.13
2018-03-27T06:36:25.169Z,101459.48
2018-03-27T06:37:30.867Z,101459.91
2018-03-27T06:38:37.355Z,101463.86
2018-03-27T06:39:44.020Z,101465.09
2018-03-27T06:40:49.636Z,101455.11
2018-03-27T06:41:58.503Z,101451.25
2018-03-27T06:43:04.490Z,101453.59
2018-03-27T06:44:10.772Z,101459.73
2018-03-27T06:45:19.785Z,101454.65
2018-03-27T06:46:25.773Z,101453.14
2018-03-27T06:47:31.458Z,101449.42
2018-03-27T06:48:37.147Z,101450.57
2018-03-27T06:49:43.091Z,101447.94
2018-03-27T06:50:50.173Z,101449.94
2018-03-27T06:51:57.729Z,101447.08
2018-03-27T06:53:04.631Z,101441.98
2018-03-27T06:54:11.656Z,101449.96
2018-03-27T06:55:16.970Z,101444.23
2018-03-27T06:56:23.428Z,101443.45
2018-03-27T06:57:29.214Z,101444.84
2018-03-27T06:58:35.340Z,101444.46
2018-03-27T06:59:41.005Z,101444.08
2018-03-27T07:00:46.733Z,101441.02
2018-03-27T07:01:53.985Z,101444.63
2018-03-27T07:03:00.381Z,101442.44
2018-03-27T07:04:06.853Z,101442.91
2018-03-27T07:05:12.865Z,101444.72
2018-03-27T07:06:19.216Z,101450.02
2018-03-27T07:07:24.307Z,101440.78
2018-03-27T07:08:30.542Z,101442.12
2018-03-27T07:09:36.019Z,101447.00
2018-03-27T07:10:42.415Z,101436.83
2018-03-27T07:11:48.102Z,101437.72
2018-03-27T07:12:55.273Z,101436.83
2018-03-27T07:14:00.377Z,101443.45
2018-03-27T07:15:08.234Z,101439.52
2018-03-27T07:16:14.538Z,101438.20
2018-03-27T07:17:21.851Z,101436.94
2018-03-27T07:18:27.665Z,101429.88
2018-03-27T07:19:34.013Z,101429.45
2018-03-27T07:20:39.810Z,101436.50
2018-03-27T07:21:46.441Z,101432.55
2018-03-27T07:22:53.321Z,101431.69
2018-03-27T07:23:59.638Z,101430.77
2018-03-27T07:25:05.603Z,101428.53
2018-03-27T07:26:10.828Z,101433.84
2018-03-27T07:27:18.785Z,101435.59
2018-03-27T07:28:24.349Z,101436.91
2018-03-27T07:29:30.749Z,101433.39
2018-03-27T07:30:37.603Z,101435.17
2018-03-27T07:31:43.400Z,101426.71
2018-03-27T07:32:48.530Z,101426.25
2018-03-27T07:33:55.849Z,101420.55
2018-03-27T07:35:00.814Z,101423.27
2018-03-27T07:36:07.502Z,101425.46
2018-03-27T07:37:13.106Z,101425.47
2018-03-27T07:38:19.070Z,101421.95
2018-03-27T07:39:25.353Z,101427.22
2018-03-27T07:40:30.678Z,101435.06
2018-03-27T07:41:35.678Z,101431.54
2018-03-27T07:42:41.284Z,101429.32
2018-03-27T07:43:47.140Z,101432.88
2018-03-27T07:44:53.910Z,101431.16
2018-03-27T07:46:00.682Z,101421.02
2018-03-27T07:47:07.400Z,101423.22
2018-03-27T07:48:13.030Z,101421.78
2018-03-27T07:49:24.257Z,101424.00
2018-03-27T07:50:29.956Z,101427.16
2018-03-27T07:51:35.554Z,101424.05
2018-03-27T07:52:42.960Z,101422.78
2018-03-27T07:53:48.385Z,101426.75
2018-03-27T07:54:54.761Z,101425.84
2018-03-27T07:55:59.946Z,101412.03
2018-03-27T07:57:05.831Z,101419.41
2018-03-27T07:58:11.447Z,101410.95
2018-03-27T08:00:33.378Z,101410.61
2018-03-27T08:01:39.535Z,101408.52
2018-03-27T08:02:45.914Z,101402.38
2018-03-27T08:03:52.193Z,101402.83
2018-03-27T08:05:08.593Z,101409.84
2018-03-27T08:06:14.132Z,101412.95
2018-03-27T08:07:21.470Z,101409.05
2018-03-27T08:08:27.516Z,101406.84
2018-03-27T08:09:33.070Z,101403.78
2018-03-27T08:10:39.431Z,101406.88
2018-03-27T08:11:45.279Z,101403.34
2018-03-27T08:12:52.195Z,101406.87
2018-03-27T08:13:57.727Z,101403.75
2018-03-27T08:15:06.823Z,101398.44
2018-03-27T08:16:12.269Z,101402.38
2018-03-27T08:17:19.116Z,101405.48
2018-03-27T08:18:24.616Z,101408.57
2018-03-27T08:19:30.813Z,101395.73
2018-03-27T08:20:36.893Z,101406.81
2018-03-27T08:21:43.208Z,101406.28
2018-03-27T08:22:50.573Z,101410.64
2018-03-27T08:23:57.252Z,101405.24
2018-03-27T08:25:03.457Z,101406.22
2018-03-27T08:26:08.443Z,101409.75
2018-03-27T08:27:14.068Z,101405.34
2018-03-27T08:28:20.231Z,101402.30
2018-03-27T08:29:26.761Z,101396.20
2018-03-27T08:30:32.453Z,101397.11
2018-03-27T08:31:39.002Z,101388.71
2018-03-27T08:32:44.520Z,101388.25
2018-03-27T08:33:51.274Z,101386.52
2018-03-27T08:34:57.538Z,101388.33
2018-03-27T08:36:04.059Z,101380.83
2018-03-27T08:37:09.770Z,101375.94
2018-03-27T08:38:14.580Z,101378.53
2018-03-27T08:39:21.596Z,101370.08
2018-03-27T08:40:27.134Z,101373.52
2018-03-27T08:41:34.470Z,101368.63
2018-03-27T08:42:40.464Z,101368.03
2018-03-27T08:43:46.923Z,101368.37
2018-03-27T08:44:52.682Z,101361.53
2018-03-27T08:45:58.129Z,101356.05
2018-03-27T08:47:04.207Z,101356.36
2018-03-27T08:48:10.294Z,101354.98
2018-03-27T08:49:16.758Z,101355.91
2018-03-27T08:50:23.180Z,101358.55
2018-03-27T08:51:31.309Z,101356.72
2018-03-27T08:52:37.938Z,101356.00
2018-03-27T08:53:43.414Z,101359.41
2018-03-27T08:54:50.208Z,101357.02
2018-03-27T08:55:55.742Z,101359.97
2018-03-27T08:57:01.946Z,101362.63
2018-03-27T08:58:14.028Z,101359.82
2018-03-27T08:59:20.473Z,101363.61
2018-03-27T09:00:26.164Z,101356.32
2018-03-27T09:01:32.700Z,101363.56
2018-03-27T09:02:38.371Z,101357.67
2018-03-27T09:03:44.455Z,101362.16
2018-03-27T09:04:49.963Z,101363.06
2018-03-27T09:05:57.417Z,101356.94
2018-03-27T09:07:05.135Z,101353.97
2018-03-27T09:08:10.915Z,101354.41
2018-03-27T09:09:15.754Z,101356.07
2018-03-27T09:10:20.683Z,101350.03
2018-03-27T09:11:26.711Z,101354.84
2018-03-27T09:12:32.273Z,101349.53
2018-03-27T09:13:37.919Z,101345.25
2018-03-27T09:14:44.130Z,101354.73
2018-03-27T09:15:50.157Z,101344.13
2018-03-27T09:16:57.191Z,101339.52
2018-03-27T09:18:02.568Z,101342.11
2018-03-27T09:19:08.971Z,101344.03
2018-03-27T09:20:15.039Z,101342.84
2018-03-27T09:21:20.539Z,101336.13
2018-03-27T09:22:26.179Z,101344.69
2018-03-27T09:23:32.235Z,101338.55
2018-03-27T09:24:37.635Z,101337.13
2018-03-27T09:25:44.057Z,101342.47
2018-03-27T09:26:55.652Z,101331.56
2018-03-27T09:28:01.690Z,101333.30
2018-03-27T09:29:07.797Z,101339.50
2018-03-27T09:30:14.332Z,101332.37
2018-03-27T09:31:22.274Z,101329.02
2018-03-27T09:32:28.113Z,101326.25
2018-03-27T09:33:34.099Z,101330.06
2018-03-27T09:34:38.896Z,101324.22
2018-03-27T09:35:44.289Z,101324.91
2018-03-27T09:36:49.844Z,101322.70
2018-03-27T09:37:56.765Z,101322.87
2018-03-27T09:39:02.322Z,101320.88
2018-03-27T09:40:08.920Z,101320.36
2018-03-27T09:41:15.082Z,101318.68
2018-03-27T09:42:20.983Z,101314.39
2018-03-27T09:43:25.965Z,101316.17
2018-03-27T09:44:33.069Z,101316.05
2018-03-27T09:45:39.146Z,101309.89
2018-03-27T09:46:46.034Z,101314.05
2018-03-27T09:47:52.027Z,101306.50
2018-03-27T09:48:58.405Z,101312.93
2018-03-27T09:50:03.846Z,101313.33
2018-03-27T09:51:10.169Z,101313.68
2018-03-27T09:52:15.946Z,101312.87
2018-03-27T09:53:21.847Z,101313.59
2018-03-27T09:54:26.687Z,101306.69
2018-03-27T09:55:31.785Z,101311.01
2018-03-27T09:56:36.552Z,101308.63
2018-03-27T09:57:41.875Z,101302.67
2018-03-27T09:58:46.651Z,101312.03
2018-03-27T09:59:52.085Z,101303.91
2018-03-27T10:00:59.254Z,101309.25
2018-03-27T10:02:05.394Z,101303.98
2018-03-27T10:03:10.166Z,101306.05
2018-03-27T10:04:16.268Z,101295.59
2018-03-27T10:05:22.382Z,101294.64
2018-03-27T10:06:31.152Z,101288.48
2018-03-27T10:07:36.869Z,101298.63
2018-03-27T10:08:44.503Z,101293.78
2018-03-27T10:09:49.239Z,101289.45
2018-03-27T10:10:55.334Z,101292.53
2018-03-27T10:12:00.623Z,101290.50
2018-03-27T10:13:06.032Z,101286.95
2018-03-27T10:14:12.400Z,101284.39
2018-03-27T10:15:17.907Z,101291.33
2018-03-27T10:16:23.368Z,101283.77
2018-03-27T10:17:30.601Z,101286.20
2018-03-27T10:18:36.888Z,101271.17
2018-03-27T10:19:43.429Z,101265.34
2018-03-27T10:20:52.747Z,101279.52
2018-03-27T10:21:58.785Z,101273.84
2018-03-27T10:23:05.372Z,101273.61
2018-03-27T10:24:11.507Z,101269.06
2018-03-27T10:25:17.017Z,101269.92
2018-03-27T10:26:25.060Z,101266.23
2018-03-27T10:27:30.586Z,101260.55
2018-03-27T10:28:36.984Z,101268.23
2018-03-27T10:29:42.417Z,101269.59
2018-03-27T10:31:02.117Z,101263.55
2018-03-27T10:32:07.651Z,101270.55
2018-03-27T10:33:13.928Z,101259.61
2018-03-27T10:34:19.463Z,101258.41
2018-03-27T10:35:24.782Z,101257.84
2018-03-27T10:36:31.337Z,101259.34
2018-03-27T10:37:37.581Z,101247.03
2018-03-27T10:38:43.005Z,101252.19
2018-03-27T10:39:49.249Z,101253.81
2018-03-27T10:40:57.863Z,101253.02
2018-03-27T10:42:04.804Z,101250.95
2018-03-27T10:43:09.902Z,101242.41
2018-03-27T10:44:15.310Z,101240.16
2018-03-27T10:45:21.298Z,101235.38
2018-03-27T10:46:27.190Z,101238.59
2018-03-27T10:47:32.594Z,101242.66
2018-03-27T10:48:38.538Z,101236.94
2018-03-27T10:49:44.018Z,101228.09
2018-03-27T10:50:52.020Z,101232.70
2018-03-27T10:51:57.479Z,101233.39
2018-03-27T10:53:04.532Z,101226.33
2018-03-27T10:54:10.439Z,101226.05
2018-03-27T10:55:15.992Z,101222.14
2018-03-27T10:56:21.368Z,101224.22
2018-03-27T10:57:26.415Z,101229.18
2018-03-27T10:58:31.206Z,101227.06
2018-03-27T10:59:37.276Z,101225.97
2018-03-27T11:00:44.105Z,101227.21
2018-03-27T11:01:50.704Z,101221.33
2018-03-27T11:02:56.737Z,101218.05
2018-03-27T11:04:03.192Z,101219.02
2018-03-27T11:05:09.380Z,101213.74
2018-03-27T11:06:14.481Z,101215.42
2018-03-27T11:07:20.460Z,101217.53
2018-03-27T11:08:26.096Z,101211.77
2018-03-27T11:09:32.992Z,101215.86
2018-03-27T11:10:38.821Z,101212.11
2018-03-27T11:11:44.982Z,101212.48
2018-03-27T11:12:50.743Z,101207.52
2018-03-27T11:13:56.641Z,101206.79
2018-03-27T11:16:29.794Z,101202.11
2018-03-27T11:17:35.724Z,101202.22
2018-03-27T11:18:42.162Z,101209.78
2018-03-27T11:19:47.146Z,101200.57
2018-03-27T11:20:52.603Z,101193.62
2018-03-27T11:21:58.525Z,101191.64
2018-03-27T11:23:04.972Z,101196.47
2018-03-27T11:24:09.710Z,101195.71
2018-03-27T11:25:18.514Z,101206.77
2018-03-27T11:26:23.952Z,101201.47
2018-03-27T11:27:36.225Z,101197.83
2018-03-27T11:28:43.680Z,101193.92
2018-03-27T11:29:49.896Z,101188.67
2018-03-27T11:30:56.738Z,101195.11
2018-03-27T11:32:04.406Z,101183.34
2018-03-27T11:33:09.128Z,101180.87
2018-03-27T11:34:18.805Z,101187.77
2018-03-27T11:35:24.050Z,101186.11
2018-03-27T11:36:29.401Z,101184.84
2018-03-27T11:37:35.372Z,101181.66
2018-03-27T11:38:41.035Z,101187.53
2018-03-27T11:39:47.112Z,101183.14
2018-03-27T11:40:52.970Z,101180.87
2018-03-27T11:41:58.360Z,101180.54
2018-03-27T11:43:03.734Z,101185.02
2018-03-27T11:44:09.846Z,101180.44
2018-03-27T11:45:18.473Z,101170.56
2018-03-27T11:46:25.404Z,101178.91
2018-03-27T11:47:30.840Z,101174.14
2018-03-27T11:48:35.674Z,101171.30
2018-03-27T11:49:42.046Z,101165.78
2018-03-27T11:50:48.136Z,101164.27
2018-03-27T11:51:52.880Z,101163.39
2018-03-27T11:52:59.053Z,101163.95
2018-03-27T11:54:04.407Z,101165.91
2018-03-27T11:55:11.905Z,101160.14
2018-03-27T11:56:16.635Z,101157.70
2018-03-27T11:57:22.989Z,101155.30
2018-03-27T11:58:29.284Z,101149.88
2018-03-27T11:59:35.313Z,101154.48
2018-03-27T12:00:41.208Z,101151.48
2018-03-27T12:01:47.431Z,101145.52
2018-03-27T12:02:56.008Z,101147.43
2018-03-27T12:04:01.929Z,101147.92
2018-03-27T12:05:09.107Z,101139.91
2018-03-27T12:06:14.730Z,101132.37
2018-03-27T12:07:19.598Z,101136.03
2018-03-27T12:08:28.131Z,101132.79
2018-03-27T12:09:34.778Z,101132.04
2018-03-27T12:10:39.551Z,101132.45
2018-03-27T12:11:46.201Z,101129.70
2018-03-27T12:12:51.559Z,101123.39
2018-03-27T12:13:59.019Z,101126.30
2018-03-27T12:15:05.771Z,101123.25
2018-03-27T12:16:12.719Z,101120.54
2018-03-27T12:17:18.194Z,101122.65
2018-03-27T12:18:24.139Z,101125.56
2018-03-27T12:19:30.291Z,101121.35
2018-03-27T12:20:35.666Z,101114.78
2018-03-27T12:21:42.057Z,101124.83
2018-03-27T12:22:48.580Z,101127.05
2018-03-27T12:23:55.879Z,101120.43
2018-03-27T12:25:00.776Z,101127.78
2018-03-27T12:27:24.452Z,101120.94
2018-03-27T12:28:30.056Z,101121.73
2018-03-27T12:29:36.591Z,101114.69
2018-03-27T12:30:42.528Z,101115.77
2018-03-27T12:31:49.458Z,101103.95
2018-03-27T12:32:57.362Z,101107.36
2018-03-27T12:34:02.778Z,101105.05
2018-03-27T12:35:08.492Z,101101.29
2018-03-27T12:36:15.011Z,101105.36
2018-03-27T12:37:19.752Z,101099.59
2018-03-27T12:38:26.286Z,101094.30
2018-03-27T12:39:31.892Z,101102.06
2018-03-27T12:40:37.548Z,101097.61
2018-03-27T12:41:42.875Z,101093.63
2018-03-27T12:42:48.029Z,101105.65
2018-03-27T12:43:53.979Z,101093.77
2018-03-27T12:45:00.410Z,101102.64